createdAt,value
2023-01-15T00:01:59.354Z,97968.69
2023-01-15T00:04:25.894Z,97973.91
2023-01-15T00:06:54.575Z,97967.78
2023-01-15T00:09:21.123Z,97973.03
2023-01-15T00:11:47.670Z,97966.09
2023-01-15T00:14:14.259Z,97964.38
2023-01-15T00:16:40.971Z,97957.41
2023-01-15T00:19:11.043Z,97952.28
2023-01-15T00:21:37.654Z,97960.94
2023-01-15T00:24:22.827Z,97960.94
2023-01-15T00:27:07.838Z,97965.28
2023-01-15T00:29:34.761Z,97967.03
2023-01-15T00:32:06.257Z,97962.75
2023-01-15T00:34:33.097Z,97971.44
2023-01-15T00:36:59.692Z,97961.00
2023-01-15T00:39:26.889Z,97969.69
2023-01-15T00:41:53.904Z,97960.97
2023-01-15T00:44:21.188Z,97960.06
2023-01-15T00:46:47.811Z,97961.72
2023-01-15T00:49:14.407Z,97958.25
2023-01-15T00:51:41.034Z,97961.75
2023-01-15T00:54:07.535Z,97964.34
2023-01-15T00:56:34.094Z,97965.31
2023-01-15T00:59:04.552Z,97967.03
2023-01-15T01:01:31.471Z,97967.91
2023-01-15T01:03:58.076Z,97959.19
2023-01-15T01:06:25.042Z,97959.16
2023-01-15T01:08:51.518Z,97952.22
2023-01-15T01:11:20.242Z,97954.81
2023-01-15T01:13:47.182Z,97951.38
2023-01-15T01:16:26.194Z,97950.44
2023-01-15T01:18:53.206Z,97946.09
2023-01-15T01:21:19.861Z,97952.19
2023-01-15T01:23:46.522Z,97949.63
2023-01-15T01:26:14.075Z,97950.53
2023-01-15T01:28:41.823Z,97943.59
2023-01-15T01:31:08.829Z,97936.66
2023-01-15T01:33:36.075Z,97946.19
2023-01-15T01:36:02.800Z,97938.38
2023-01-15T01:38:29.332Z,97940.09
2023-01-15T01:40:55.795Z,97935.69
2023-01-15T01:43:23.939Z,97934.88
2023-01-15T01:45:50.478Z,97936.59
2023-01-15T01:48:18.965Z,97929.59
2023-01-15T01:50:46.382Z,97924.41
2023-01-15T01:53:21.864Z,97921.78
2023-01-15T01:55:50.186Z,97922.66
2023-01-15T01:58:17.396Z,97922.69
2023-01-15T02:00:46.555Z,97918.41
2023-01-15T02:03:13.755Z,97916.59
2023-01-15T02:05:42.756Z,97919.25
2023-01-15T02:08:09.316Z,97910.66
2023-01-15T02:10:35.900Z,97911.56
2023-01-15T02:13:13.017Z,97908.09
2023-01-15T02:15:41.656Z,97902.00
2023-01-15T02:18:13.168Z,97902.84
2023-01-15T02:20:42.544Z,97902.81
2023-01-15T02:23:18.333Z,97905.38
2023-01-15T02:25:44.909Z,97908.00
2023-01-15T02:28:16.689Z,97895.84
2023-01-15T02:30:47.001Z,97895.94
2023-01-15T02:33:37.643Z,97893.34
2023-01-15T02:36:07.282Z,97893.34
2023-01-15T02:38:40.443Z,97888.13
2023-01-15T02:41:16.215Z,97882.06
2023-01-15T02:43:44.315Z,97884.69
2023-01-15T02:46:11.319Z,97884.69
2023-01-15T02:48:39.453Z,97878.78
2023-01-15T02:51:16.144Z,97886.56
2023-01-15T02:53:44.364Z,97883.97
2023-01-15T02:56:14.542Z,97879.56
2023-01-15T02:58:42.388Z,97876.03
2023-01-15T03:01:15.268Z,97876.03
2023-01-15T03:03:41.775Z,97873.44
2023-01-15T03:06:18.838Z,97867.41
2023-01-15T03:08:45.786Z,97876.03
2023-01-15T03:11:12.270Z,97870.81
2023-01-15T03:13:38.815Z,97877.72
2023-01-15T03:16:37.159Z,97876.84
2023-01-15T03:19:03.783Z,97869.88
2023-01-15T03:21:42.396Z,97872.50
2023-01-15T03:24:10.771Z,97877.72
2023-01-15T03:26:37.287Z,97872.44
2023-01-15T03:29:05.893Z,97880.28
2023-01-15T03:31:33.983Z,97873.31
2023-01-15T03:34:00.876Z,97877.72
2023-01-15T03:36:27.350Z,97858.59
2023-01-15T03:38:54.590Z,97879.47
2023-01-15T03:41:26.231Z,97864.63
2023-01-15T03:44:02.166Z,97864.63
2023-01-15T03:46:37.865Z,97873.34
2023-01-15T03:49:04.466Z,97882.91
2023-01-15T03:51:53.939Z,97876.75
2023-01-15T03:54:27.200Z,97884.66
2023-01-15T03:57:05.746Z,97876.88
2023-01-15T03:59:37.988Z,97885.63
2023-01-15T04:02:07.541Z,97876.94
2023-01-15T04:04:34.569Z,97883.00
2023-01-15T04:07:02.752Z,97883.88
2023-01-15T04:09:29.290Z,97883.88
2023-01-15T04:11:58.792Z,97883.91
2023-01-15T04:14:25.285Z,97883.91
2023-01-15T04:16:51.769Z,97882.19
2023-01-15T04:19:18.245Z,97878.75
2023-01-15T04:21:44.744Z,97873.53
2023-01-15T04:24:11.254Z,97873.53
2023-01-15T04:26:37.799Z,97877.06
2023-01-15T04:29:04.355Z,97881.38
2023-01-15T04:31:33.363Z,97877.84
2023-01-15T04:34:00.176Z,97877.00
2023-01-15T04:36:26.663Z,97870.91
2023-01-15T04:38:54.634Z,97887.38
2023-01-15T04:41:39.708Z,97884.75
2023-01-15T04:44:09.104Z,97881.25
2023-01-15T04:46:39.894Z,97884.75
2023-01-15T04:49:08.423Z,97887.44
2023-01-15T04:51:35.059Z,97885.59
2023-01-15T04:54:05.581Z,97889.06
2023-01-15T04:56:32.546Z,97883.88
2023-01-15T04:59:02.367Z,97891.69
2023-01-15T05:01:29.063Z,97890.84
2023-01-15T05:03:55.585Z,97887.34
2023-01-15T05:06:22.145Z,97890.81
2023-01-15T05:08:48.700Z,97888.19
2023-01-15T05:11:15.290Z,97886.47
2023-01-15T05:13:41.860Z,97889.09
2023-01-15T05:16:08.425Z,97891.66
2023-01-15T05:18:35.088Z,97882.97
2023-01-15T05:21:01.913Z,97884.78
2023-01-15T05:23:28.366Z,97890.00
2023-01-15T05:25:54.944Z,97887.47
2023-01-15T05:28:21.451Z,97880.47
2023-01-15T05:30:47.980Z,97888.28
2023-01-15T05:33:14.510Z,97883.06
2023-01-15T05:35:40.994Z,97887.47
2023-01-15T05:38:07.504Z,97878.75
2023-01-15T05:40:34.014Z,97878.78
2023-01-15T05:43:00.498Z,97877.94
2023-01-15T05:45:26.992Z,97879.72
2023-01-15T05:47:53.742Z,97875.34
2023-01-15T05:50:20.285Z,97878.81
2023-01-15T05:52:46.764Z,97881.41
2023-01-15T05:55:13.288Z,97883.16
2023-01-15T05:57:39.806Z,97879.69
2023-01-15T06:00:06.749Z,97879.69
2023-01-15T06:02:33.362Z,97876.22
2023-01-15T06:04:59.913Z,97873.59
2023-01-15T06:07:26.454Z,97879.72
2023-01-15T06:09:52.925Z,97873.63
2023-01-15T06:12:19.402Z,97868.47
2023-01-15T06:14:45.880Z,97871.94
2023-01-15T06:17:12.393Z,97866.72
2023-01-15T06:19:38.934Z,97871.06
2023-01-15T06:22:05.454Z,97873.66
2023-01-15T06:24:31.949Z,97872.78
2023-01-15T06:26:58.381Z,97875.41
2023-01-15T06:29:24.991Z,97877.09
2023-01-15T06:31:51.441Z,97876.22
2023-01-15T06:34:18.132Z,97875.41
2023-01-15T06:36:44.611Z,97878.97
2023-01-15T06:39:11.122Z,97884.09
2023-01-15T06:41:56.662Z,97882.31
2023-01-15T06:44:41.650Z,97876.25
2023-01-15T06:47:21.442Z,97882.28
2023-01-15T06:49:57.931Z,97866.72
2023-01-15T06:52:27.203Z,97879.72
2023-01-15T06:54:53.684Z,97880.56
2023-01-15T06:57:20.651Z,97877.97
2023-01-15T06:59:47.803Z,97874.47
2023-01-15T07:02:14.287Z,97879.66
2023-01-15T07:04:41.008Z,97874.44
2023-01-15T07:07:07.564Z,97870.03
2023-01-15T07:09:34.133Z,97872.59
2023-01-15T07:12:00.688Z,97871.72
2023-01-15T07:14:31.360Z,97868.16
2023-01-15T07:16:59.417Z,97866.38
2023-01-15T07:19:27.248Z,97865.59
2023-01-15T07:21:53.857Z,97861.16
2023-01-15T07:24:22.612Z,97861.97
2023-01-15T07:26:49.208Z,97864.56
2023-01-15T07:29:15.829Z,97859.25
2023-01-15T07:31:42.533Z,97856.69
2023-01-15T07:34:09.189Z,97850.59
2023-01-15T07:36:35.684Z,97852.25
2023-01-15T07:39:04.161Z,97855.75
2023-01-15T07:41:49.482Z,97855.69
2023-01-15T07:44:34.619Z,97856.56
2023-01-15T07:47:19.743Z,97852.09
2023-01-15T07:49:46.458Z,97853.88
2023-01-15T07:52:13.523Z,97855.50
2023-01-15T07:54:40.000Z,97853.75
2023-01-15T07:57:06.738Z,97854.44
2023-01-15T07:59:33.389Z,97846.53
2023-01-15T08:02:00.054Z,97843.84
2023-01-15T08:04:26.791Z,97844.78
2023-01-15T08:06:53.406Z,97839.50
2023-01-15T08:09:19.906Z,97844.66
2023-01-15T08:12:04.915Z,97848.03
2023-01-15T08:14:50.071Z,97844.56
2023-01-15T08:17:16.578Z,97844.53
2023-01-15T08:19:43.121Z,97844.50
2023-01-15T08:22:10.486Z,97834.81
2023-01-15T08:24:37.135Z,97835.59
2023-01-15T08:27:03.686Z,97830.25
2023-01-15T08:29:30.270Z,97834.47
2023-01-15T08:31:56.801Z,97829.16
2023-01-15T08:34:24.329Z,97831.00
2023-01-15T08:36:57.096Z,97826.63
2023-01-15T08:39:23.634Z,97824.66
2023-01-15T08:41:50.159Z,97824.38
2023-01-15T08:44:17.167Z,97815.72
2023-01-15T08:46:43.775Z,97814.97
2023-01-15T08:49:10.617Z,97813.91
2023-01-15T08:53:31.927Z,97801.53
2023-01-15T08:55:58.968Z,97798.78
2023-01-15T08:58:31.554Z,97790.78
2023-01-15T09:01:09.451Z,97795.06
2023-01-15T09:03:36.891Z,97787.91
2023-01-15T09:06:03.996Z,97787.78
2023-01-15T09:08:30.712Z,97789.53
2023-01-15T09:10:59.228Z,97780.97
2023-01-15T09:13:27.190Z,97783.19
2023-01-15T09:15:54.015Z,97786.75
2023-01-15T09:18:20.705Z,97777.94
2023-01-15T09:20:47.674Z,97775.16
2023-01-15T09:23:15.142Z,97762.06
2023-01-15T09:25:58.565Z,97761.09
2023-01-15T09:28:25.277Z,97762.69
2023-01-15T09:30:51.967Z,97758.97
2023-01-15T09:33:18.959Z,97753.50
2023-01-15T09:35:46.040Z,97750.88
2023-01-15T09:38:18.324Z,97754.81
2023-01-15T09:41:07.185Z,97744.28
2023-01-15T09:44:00.735Z,97743.50
2023-01-15T09:46:42.665Z,97726.66
2023-01-15T09:49:49.426Z,97726.47
2023-01-15T09:52:24.701Z,97720.88
2023-01-15T09:55:03.352Z,97711.94
2023-01-15T09:57:31.199Z,97698.16
2023-01-15T10:00:03.791Z,97691.63
2023-01-15T10:02:44.178Z,97691.38
2023-01-15T10:05:17.005Z,97686.28
2023-01-15T10:08:09.944Z,97675.97
2023-01-15T10:10:44.789Z,97671.56
2023-01-15T10:13:41.308Z,97655.25
2023-01-15T10:16:11.196Z,97650.97
2023-01-15T10:18:39.101Z,97654.22
2023-01-15T10:21:31.569Z,97644.28
2023-01-15T10:24:10.763Z,97644.97
2023-01-15T10:26:44.718Z,97634.41
2023-01-15T10:29:27.003Z,97632.66
2023-01-15T10:31:58.531Z,97624.63
2023-01-15T10:34:43.927Z,97607.97
2023-01-15T10:37:33.022Z,97608.25
2023-01-15T10:40:15.077Z,97600.31
2023-01-15T10:43:19.318Z,97599.09
2023-01-15T10:45:53.986Z,97594.91
2023-01-15T10:48:40.337Z,97582.16
2023-01-15T10:51:46.486Z,97582.19
2023-01-15T10:54:34.240Z,97579.72
2023-01-15T10:57:13.605Z,97583.50
2023-01-15T11:00:01.107Z,97573.63
2023-01-15T11:02:39.821Z,97568.63
2023-01-15T11:05:12.134Z,97571.00
2023-01-15T11:08:26.401Z,97562.25
2023-01-15T11:10:41.563Z,97558.94
2023-01-15T11:13:42.125Z,97556.13
2023-01-15T11:16:43.338Z,97551.56
2023-01-15T11:19:37.398Z,97545.41
2023-01-15T11:22:14.675Z,97545.44
2023-01-15T11:24:53.735Z,97545.69
2023-01-15T11:27:24.540Z,97536.78
2023-01-15T11:30:00.052Z,97530.28
2023-01-15T11:32:39.234Z,97533.41
2023-01-15T11:35:09.095Z,97542.63
2023-01-15T11:37:35.699Z,97534.16
2023-01-15T11:40:06.611Z,97530.75
2023-01-15T11:42:55.583Z,97531.56
2023-01-15T11:45:45.767Z,97526.22
2023-01-15T11:48:39.532Z,97524.38
2023-01-15T11:51:12.339Z,97533.09
2023-01-15T11:53:42.042Z,97525.22
2023-01-15T11:56:16.414Z,97520.31
2023-01-15T11:58:47.727Z,97520.50
2023-01-15T12:01:33.481Z,97524.81
2023-01-15T12:05:05.976Z,97522.75
2023-01-15T12:07:32.827Z,97527.66
2023-01-15T12:10:19.763Z,97523.44
2023-01-15T12:13:05.500Z,97516.28
2023-01-15T12:15:56.197Z,97517.38
2023-01-15T12:18:33.683Z,97507.78
2023-01-15T12:21:29.557Z,97508.56
2023-01-15T12:24:25.131Z,97495.47
2023-01-15T12:27:13.209Z,97493.53
2023-01-15T12:29:52.114Z,97489.97
2023-01-15T12:32:25.080Z,97487.38
2023-01-15T12:35:00.570Z,97480.50
2023-01-15T12:37:32.213Z,97474.50
2023-01-15T12:40:17.613Z,97464.97
2023-01-15T12:43:06.696Z,97470.94
2023-01-15T12:45:50.838Z,97471.72
2023-01-15T12:48:24.201Z,97461.22
2023-01-15T12:50:58.041Z,97449.88
2023-01-15T12:53:37.931Z,97457.75
2023-01-15T12:56:34.336Z,97446.34
2023-01-15T12:59:20.082Z,97449.03
2023-01-15T13:02:11.389Z,97451.69
2023-01-15T13:04:52.985Z,97445.59
2023-01-15T13:07:32.350Z,97442.09
2023-01-15T13:10:13.192Z,97442.94
2023-01-15T13:12:40.921Z,97431.69
2023-01-15T13:15:13.024Z,97429.94
2023-01-15T13:17:54.985Z,97428.25
2023-01-15T13:20:39.761Z,97430.13
2023-01-15T13:23:12.559Z,97423.16
2023-01-15T13:25:44.986Z,97424.88
2023-01-15T13:28:24.751Z,97419.69
2023-01-15T13:31:06.317Z,97419.78
2023-01-15T13:37:26.046Z,97417.31
2023-01-15T13:40:18.876Z,97415.72
2023-01-15T13:42:50.535Z,97408.63
2023-01-15T13:45:28.169Z,97402.59
2023-01-15T13:47:59.764Z,97408.94
2023-01-15T13:50:31.232Z,97398.50
2023-01-15T13:54:46.440Z,97395.91
2023-01-15T13:57:24.405Z,97388.91
2023-01-15T14:00:02.079Z,97389.97
2023-01-15T14:02:43.500Z,97384.84
2023-01-15T14:05:36.984Z,97378.00
2023-01-15T14:08:16.771Z,97376.31
2023-01-15T14:10:43.457Z,97372.84
2023-01-15T14:14:22.963Z,97382.69
2023-01-15T14:17:14.559Z,97380.22
2023-01-15T14:19:59.087Z,97381.31
2023-01-15T14:22:44.569Z,97381.69
2023-01-15T14:25:13.958Z,97384.44
2023-01-15T14:28:06.800Z,97382.00
2023-01-15T14:30:51.834Z,97382.13
2023-01-15T14:33:43.088Z,97382.63
2023-01-15T14:36:15.161Z,97376.81
2023-01-15T14:38:55.144Z,97376.00
2023-01-15T14:41:54.686Z,97384.97
2023-01-15T14:44:30.636Z,97380.13
2023-01-15T14:47:04.834Z,97378.56
2023-01-15T14:49:42.920Z,97377.06
2023-01-15T14:52:09.982Z,97384.38
2023-01-15T14:54:39.462Z,97379.31
2023-01-15T14:57:08.696Z,97381.28
2023-01-15T14:59:50.317Z,97388.16
2023-01-15T15:02:36.609Z,97377.03
2023-01-15T15:05:09.060Z,97372.09
2023-01-15T15:07:45.202Z,97380.22
2023-01-15T15:10:26.206Z,97376.09
2023-01-15T15:13:06.423Z,97373.63
2023-01-15T15:15:47.039Z,97368.47
2023-01-15T15:18:31.191Z,97370.31
2023-01-15T15:21:07.140Z,97368.66
2023-01-15T15:23:42.955Z,97360.84
2023-01-15T15:26:28.322Z,97351.41
2023-01-15T15:29:04.828Z,97359.34
2023-01-15T15:31:37.204Z,97355.88
2023-01-15T15:34:07.313Z,97358.50
2023-01-15T15:36:39.424Z,97355.19
2023-01-15T15:40:00.154Z,97354.50
2023-01-15T15:42:51.156Z,97354.66
2023-01-15T15:46:12.056Z,97353.00
2023-01-15T15:48:41.979Z,97350.50
2023-01-15T15:51:25.792Z,97352.41
2023-01-15T15:54:11.131Z,97351.59
2023-01-15T15:56:41.671Z,97356.84
2023-01-15T15:59:18.698Z,97348.22
2023-01-15T16:01:45.731Z,97350.09
2023-01-15T16:04:21.509Z,97348.44
2023-01-15T16:06:49.211Z,97350.09
2023-01-15T16:09:22.113Z,97357.97
2023-01-15T16:11:54.502Z,97358.94
2023-01-15T16:14:22.924Z,97363.41
2023-01-15T16:16:50.546Z,97362.59
2023-01-15T16:19:40.446Z,97361.00
2023-01-15T16:22:09.301Z,97356.66
2023-01-15T16:24:37.179Z,97357.56
2023-01-15T16:27:12.100Z,97365.47
2023-01-15T16:29:39.384Z,97358.63
2023-01-15T16:32:14.540Z,97352.59
2023-01-15T16:34:42.238Z,97349.19
2023-01-15T16:37:27.581Z,97345.72
2023-01-15T16:39:54.372Z,97342.31
2023-01-15T16:42:28.273Z,97345.72
2023-01-15T16:45:01.876Z,97337.16
2023-01-15T16:47:36.547Z,97341.66
2023-01-15T16:50:24.417Z,97336.63
2023-01-15T16:52:53.488Z,97340.91
2023-01-15T16:55:35.578Z,97338.44
2023-01-15T16:58:23.038Z,97345.41
2023-01-15T17:00:57.313Z,97348.03
2023-01-15T17:03:42.487Z,97343.69
2023-01-15T17:06:16.438Z,97344.53
2023-01-15T17:08:56.114Z,97342.00
2023-01-15T17:11:31.023Z,97342.91
2023-01-15T17:14:11.068Z,97348.16
2023-01-15T17:16:40.714Z,97342.16
2023-01-15T17:19:07.974Z,97344.00
2023-01-15T17:21:40.084Z,97346.66
2023-01-15T17:24:08.184Z,97341.53
2023-01-15T17:26:43.114Z,97345.13
2023-01-15T17:29:14.476Z,97336.47
2023-01-15T17:32:31.879Z,97343.47
2023-01-15T17:35:03.874Z,97342.72
2023-01-15T17:37:30.714Z,97341.00
2023-01-15T17:40:27.125Z,97337.56
2023-01-15T17:42:56.638Z,97338.41
2023-01-15T17:45:27.124Z,97328.03
2023-01-15T17:47:53.873Z,97329.78
2023-01-15T17:50:20.844Z,97322.88
2023-01-15T17:52:48.276Z,97320.41
2023-01-15T17:55:37.105Z,97308.38
2023-01-15T17:58:22.893Z,97308.56
2023-01-15T18:01:09.050Z,97311.22
2023-01-15T18:03:55.162Z,97307.81
2023-01-15T18:06:22.416Z,97301.75
2023-01-15T18:08:59.007Z,97302.69
2023-01-15T18:11:25.664Z,97294.13
2023-01-15T18:14:15.700Z,97297.66
2023-01-15T18:16:42.451Z,97298.50
2023-01-15T18:19:09.113Z,97292.44
2023-01-15T18:21:40.540Z,97288.94
2023-01-15T18:24:10.304Z,97286.31
2023-01-15T18:26:38.508Z,97284.59
2023-01-15T18:29:06.849Z,97280.41
2023-01-15T18:31:36.055Z,97278.63
2023-01-15T18:34:02.782Z,97283.88
2023-01-15T18:36:29.516Z,97275.25
2023-01-15T18:38:58.030Z,97276.13
2023-01-15T18:41:53.707Z,97270.13
2023-01-15T18:44:41.835Z,97269.38
2023-01-15T18:47:12.602Z,97266.75
2023-01-15T18:49:42.278Z,97267.72
2023-01-15T18:52:30.030Z,97266.88
2023-01-15T18:54:56.865Z,97262.59
2023-01-15T18:57:24.234Z,97259.97
2023-01-15T18:59:51.527Z,97257.41
2023-01-15T19:02:47.785Z,97256.47
2023-01-15T19:05:17.034Z,97259.91
2023-01-15T19:07:44.985Z,97257.34
2023-01-15T19:10:13.384Z,97259.84
2023-01-15T19:12:40.276Z,97263.34
2023-01-15T19:15:26.592Z,97264.22
2023-01-15T19:18:11.973Z,97266.84
2023-01-15T19:20:39.443Z,97255.59
2023-01-15T19:23:06.722Z,97251.31
2023-01-15T19:25:40.813Z,97255.59
2023-01-15T19:28:09.978Z,97249.53
2023-01-15T19:30:51.473Z,97247.00
2023-01-15T19:33:18.028Z,97242.66
2023-01-15T19:35:44.730Z,97240.94
2023-01-15T19:38:11.779Z,97235.78
2023-01-15T19:40:42.093Z,97244.41
2023-01-15T19:43:28.886Z,97240.06
2023-01-15T19:46:14.178Z,97236.66
2023-01-15T19:48:59.678Z,97241.94
2023-01-15T19:51:45.148Z,97231.63
2023-01-15T19:54:11.760Z,97237.72
2023-01-15T19:56:38.425Z,97233.44
2023-01-15T19:59:05.001Z,97238.66
2023-01-15T20:01:31.715Z,97235.22
2023-01-15T20:03:58.392Z,97237.88
2023-01-15T20:06:25.076Z,97236.97
2023-01-15T20:08:51.651Z,97237.00
2023-01-15T20:11:18.425Z,97227.50
2023-01-15T20:13:53.883Z,97228.38
2023-01-15T20:16:22.678Z,97220.59
2023-01-15T20:18:50.588Z,97231.81
2023-01-15T20:21:17.647Z,97228.34
2023-01-15T20:23:44.600Z,97224.94
2023-01-15T20:26:14.161Z,97220.59
2023-01-15T20:28:42.741Z,97231.00
2023-01-15T20:31:17.620Z,97228.38
2023-01-15T20:33:44.563Z,97230.16
2023-01-15T20:36:11.206Z,97227.56
2023-01-15T20:38:37.788Z,97230.97
2023-01-15T20:41:32.663Z,97232.69
2023-01-15T20:44:18.206Z,97221.53
2023-01-15T20:46:44.813Z,97229.31
2023-01-15T20:49:30.676Z,97228.44
2023-01-15T20:51:57.881Z,97227.56
2023-01-15T20:54:26.055Z,97235.38
2023-01-15T20:56:52.911Z,97230.16
2023-01-15T20:59:19.754Z,97234.47
2023-01-15T21:01:46.434Z,97236.19
2023-01-15T21:04:13.909Z,97235.38
2023-01-15T21:06:41.159Z,97230.19
2023-01-15T21:09:07.929Z,97236.22
2023-01-15T21:11:34.632Z,97230.16
2023-01-15T21:14:01.322Z,97226.75
2023-01-15T21:16:27.968Z,97221.56
2023-01-15T21:18:54.673Z,97225.00
2023-01-15T21:21:22.354Z,97223.31
2023-01-15T21:23:49.108Z,97219.91
2023-01-15T21:26:16.561Z,97228.53
2023-01-15T21:29:08.283Z,97225.94
2023-01-15T21:31:34.993Z,97228.59
2023-01-15T21:34:01.699Z,97226.03
2023-01-15T21:36:28.381Z,97230.34
2023-01-15T21:38:55.055Z,97235.53
2023-01-15T21:41:41.176Z,97227.75
2023-01-15T21:44:35.745Z,97219.09
2023-01-15T21:47:08.610Z,97226.03
2023-01-15T21:49:35.605Z,97220.00
2023-01-15T21:52:06.814Z,97215.69
2023-01-15T21:54:33.799Z,97199.28
2023-01-15T21:57:00.691Z,97207.94
2023-01-15T21:59:27.685Z,97202.75
2023-01-15T22:01:55.872Z,97211.38
2023-01-15T22:04:24.551Z,97204.50
2023-01-15T22:06:52.527Z,97204.50
2023-01-15T22:09:20.114Z,97205.38
2023-01-15T22:11:47.510Z,97202.81
2023-01-15T22:14:15.074Z,97209.69
2023-01-15T22:16:42.255Z,97197.66
2023-01-15T22:19:10.277Z,97193.34
2023-01-15T22:21:37.235Z,97198.50
2023-01-15T22:24:05.102Z,97197.66
2023-01-15T22:26:32.130Z,97193.34
2023-01-15T22:28:59.425Z,97194.22
2023-01-15T22:31:27.992Z,97192.56
2023-01-15T22:33:57.814Z,97187.41
2023-01-15T22:36:26.876Z,97187.34
2023-01-15T22:38:55.048Z,97179.63
2023-01-15T22:41:40.524Z,97183.06
2023-01-15T22:44:09.809Z,97178.78
2023-01-15T22:46:36.911Z,97180.47
2023-01-15T22:49:04.350Z,97182.19
2023-01-15T22:51:31.187Z,97173.56
2023-01-15T22:53:58.320Z,97181.34
2023-01-15T22:56:25.905Z,97176.16
2023-01-15T22:58:56.293Z,97170.13
2023-01-15T23:01:23.956Z,97172.69
2023-01-15T23:03:50.857Z,97165.78
2023-01-15T23:06:21.294Z,97169.22
2023-01-15T23:08:48.072Z,97163.22
2023-01-15T23:11:16.221Z,97162.34
2023-01-15T23:13:42.932Z,97166.63
2023-01-15T23:16:10.314Z,97166.63
2023-01-15T23:18:37.293Z,97170.97
2023-01-15T23:21:08.441Z,97158.03
2023-01-15T23:23:36.063Z,97161.47
2023-01-15T23:26:11.072Z,97164.91
2023-01-15T23:28:38.123Z,97160.56
2023-01-15T23:31:04.752Z,97166.66
2023-01-15T23:33:31.505Z,97164.91
2023-01-15T23:35:59.398Z,97158.03
2023-01-15T23:38:26.037Z,97147.66
2023-01-15T23:40:52.833Z,97160.63
2023-01-15T23:43:39.690Z,97162.34
2023-01-15T23:46:32.090Z,97158.91
2023-01-15T23:49:05.910Z,97155.50
2023-01-15T23:51:33.457Z,97165.78
2023-01-15T23:54:01.030Z,97158.03
2023-01-15T23:56:29.650Z,97160.63
2023-01-15T23:58:56.883Z,97155.44
